createdAt,value
2018-03-28T00:01:54.710Z,22.02
2018-03-28T00:04:21.055Z,20.70
2018-03-28T00:06:47.314Z,19.30
2018-03-28T00:09:14.365Z,19.25
2018-03-28T00:11:41.368Z,16.98
2018-03-28T00:14:07.638Z,25.88
2018-03-28T00:16:34.731Z,20.65
2018-03-28T00:19:00.988Z,18.98
2018-03-28T00:21:27.267Z,18.58
2018-03-28T00:23:53.516Z,27.52
2018-03-28T00:26:19.833Z,19.30
2018-03-28T00:28:46.106Z,24.00
2018-03-28T00:31:12.433Z,23.05
2018-03-28T00:33:38.702Z,24.20
2018-03-28T00:36:04.967Z,26.67
2018-03-28T00:38:31.233Z,19.00
2018-03-28T00:40:57.499Z,22.35
2018-03-28T00:43:23.770Z,18.55
2018-03-28T00:45:50.145Z,29.83
2018-03-28T00:48:16.456Z,25.80
2018-03-28T00:50:42.700Z,21.60
2018-03-28T00:53:09.719Z,22.98
2018-03-28T00:55:35.959Z,20.48
2018-03-28T00:58:02.244Z,22.98
2018-03-28T01:00:28.504Z,25.33
2018-03-28T01:02:54.775Z,22.27
2018-03-28T01:05:21.039Z,26.80
2018-03-28T01:07:47.320Z,23.85
2018-03-28T01:10:14.316Z,26.23
2018-03-28T01:12:41.308Z,30.70
2018-03-28T01:15:07.584Z,29.37
2018-03-28T01:17:33.864Z,27.20
2018-03-28T01:20:00.159Z,34.90
2018-03-28T01:22:26.455Z,30.90
2018-03-28T01:24:52.714Z,28.02
2018-03-28T01:27:18.963Z,22.27
2018-03-28T01:29:45.223Z,28.65
2018-03-28T01:32:12.256Z,25.98
2018-03-28T01:34:38.538Z,23.90
2018-03-28T01:37:04.819Z,22.90
2018-03-28T01:39:31.857Z,23.30
2018-03-28T01:41:58.204Z,26.62
2018-03-28T01:44:24.564Z,23.62
2018-03-28T01:46:50.819Z,25.23
2018-03-28T01:49:17.108Z,26.98
2018-03-28T01:51:44.132Z,24.65
2018-03-28T01:54:10.383Z,25.35
2018-03-28T01:56:37.384Z,22.90
2018-03-28T01:59:03.654Z,24.85
2018-03-28T02:01:30.667Z,21.90
2018-03-28T02:03:56.914Z,21.95
2018-03-28T02:06:23.167Z,25.30
2018-03-28T02:08:50.152Z,22.67
2018-03-28T02:11:16.455Z,19.62
2018-03-28T02:16:34.052Z,20.90
2018-03-28T02:19:00.324Z,20.52
2018-03-28T02:21:26.637Z,19.35
2018-03-28T02:23:53.627Z,21.08
2018-03-28T02:26:19.913Z,19.58
2018-03-28T02:28:46.891Z,21.87
2018-03-28T02:31:13.138Z,25.12
2018-03-28T02:33:39.416Z,18.70
2018-03-28T02:36:06.479Z,20.02
2018-03-28T02:38:32.771Z,19.00
2018-03-28T02:40:59.026Z,18.37
2018-03-28T02:43:26.070Z,19.83
2018-03-28T02:45:52.316Z,21.27
2018-03-28T02:48:19.344Z,15.05
2018-03-28T02:50:45.581Z,17.77
2018-03-28T02:53:12.595Z,18.12
2018-03-28T02:55:38.861Z,20.15
2018-03-28T02:58:05.857Z,17.40
2018-03-28T03:00:32.117Z,18.95
2018-03-28T03:02:58.365Z,16.40
2018-03-28T03:05:25.397Z,17.70
2018-03-28T03:07:51.648Z,15.80
2018-03-28T03:10:18.668Z,13.98
2018-03-28T03:12:44.939Z,15.48
2018-03-28T03:15:11.224Z,16.55
2018-03-28T03:17:37.530Z,15.45
2018-03-28T03:20:03.796Z,16.70
2018-03-28T03:22:30.140Z,16.48
2018-03-28T03:24:57.196Z,19.65
2018-03-28T03:27:23.484Z,16.67
2018-03-28T03:29:49.755Z,16.42
2018-03-28T03:32:16.033Z,16.00
2018-03-28T03:34:42.312Z,18.23
2018-03-28T03:37:09.326Z,16.23
2018-03-28T03:39:35.576Z,15.50
2018-03-28T03:42:01.840Z,13.65
2018-03-28T03:44:28.109Z,16.48
2018-03-28T03:46:54.376Z,17.20
2018-03-28T03:49:21.397Z,15.30
2018-03-28T03:51:47.638Z,14.57
2018-03-28T03:54:14.692Z,17.23
2018-03-28T03:56:40.967Z,17.37
2018-03-28T03:59:07.249Z,18.17
2018-03-28T04:01:34.248Z,20.67
2018-03-28T04:04:00.524Z,18.05
2018-03-28T04:06:26.771Z,17.58
2018-03-28T04:08:53.097Z,21.58
2018-03-28T04:11:19.368Z,20.15
2018-03-28T04:13:45.678Z,16.75
2018-03-28T04:16:11.944Z,17.62
2018-03-28T04:18:38.243Z,20.35
2018-03-28T04:21:04.531Z,22.35
2018-03-28T04:23:30.772Z,19.52
2018-03-28T04:25:57.052Z,19.83
2018-03-28T04:28:23.310Z,18.48
2018-03-28T04:30:49.591Z,14.90
2018-03-28T04:33:15.852Z,17.73
2018-03-28T04:35:42.131Z,17.67
2018-03-28T04:38:08.404Z,15.43
2018-03-28T04:40:34.643Z,16.70
2018-03-28T04:43:00.915Z,15.60
2018-03-28T04:45:27.918Z,18.20
2018-03-28T04:47:54.190Z,18.02
2018-03-28T04:50:21.192Z,15.45
2018-03-28T04:52:47.451Z,21.85
2018-03-28T04:55:13.710Z,20.25
2018-03-28T04:57:39.996Z,21.70
2018-03-28T05:00:06.255Z,22.55
2018-03-28T05:02:32.507Z,18.92
2018-03-28T05:04:58.771Z,22.77
2018-03-28T05:07:25.136Z,24.27
2018-03-28T05:09:51.420Z,25.33
2018-03-28T05:12:17.664Z,29.37
2018-03-28T05:14:43.920Z,24.55
2018-03-28T05:17:10.187Z,29.15
2018-03-28T05:19:36.431Z,31.65
2018-03-28T05:22:02.713Z,30.75
2018-03-28T05:24:29.694Z,31.48
2018-03-28T05:26:55.958Z,30.02
2018-03-28T05:29:22.212Z,31.58
2018-03-28T05:31:48.468Z,34.03
2018-03-28T05:34:14.747Z,30.05
2018-03-28T05:36:41.031Z,33.92
2018-03-28T05:39:07.324Z,31.45
2018-03-28T05:41:33.573Z,33.05
2018-03-28T05:44:00.612Z,35.70
2018-03-28T05:46:27.592Z,39.20
2018-03-28T05:48:53.887Z,36.03
2018-03-28T05:51:20.919Z,43.40
2018-03-28T05:53:47.219Z,42.90
2018-03-28T05:56:13.468Z,43.03
2018-03-28T05:58:39.744Z,33.05
2018-03-28T06:01:05.997Z,40.12
2018-03-28T06:03:33.031Z,48.58
2018-03-28T06:05:59.351Z,42.20
2018-03-28T06:08:25.632Z,40.97
2018-03-28T06:10:51.904Z,43.03
2018-03-28T06:13:18.907Z,40.12
2018-03-28T06:15:45.164Z,40.80
2018-03-28T06:18:11.512Z,47.25
2018-03-28T06:20:38.528Z,51.30
2018-03-28T06:23:04.789Z,51.53
2018-03-28T06:25:31.036Z,46.28
2018-03-28T06:27:57.303Z,47.60
2018-03-28T06:30:23.614Z,46.33
2018-03-28T06:32:49.909Z,45.80
2018-03-28T06:35:16.895Z,49.38
2018-03-28T06:37:43.220Z,45.92
2018-03-28T06:40:10.323Z,42.55
2018-03-28T06:42:37.339Z,44.45
2018-03-28T06:45:03.644Z,37.92
2018-03-28T06:47:29.964Z,54.97
2018-03-28T06:49:56.307Z,49.22
2018-03-28T06:52:22.588Z,50.70
2018-03-28T06:54:49.608Z,66.87
2018-03-28T06:57:15.876Z,64.80
2018-03-28T06:59:42.234Z,46.65
2018-03-28T07:02:09.222Z,54.60
2018-03-28T07:04:35.512Z,44.40
2018-03-28T07:07:01.843Z,43.97
2018-03-28T07:09:28.110Z,49.70
2018-03-28T07:11:54.431Z,46.30
2018-03-28T07:14:20.709Z,40.15
2018-03-28T07:16:47.036Z,46.65
2018-03-28T07:19:13.324Z,48.80
2018-03-28T07:21:39.623Z,41.53
2018-03-28T07:24:05.878Z,46.58
2018-03-28T07:26:32.165Z,48.45
2018-03-28T07:28:59.151Z,41.72
2018-03-28T07:31:25.465Z,41.05
2018-03-28T07:33:51.756Z,46.28
2018-03-28T07:36:18.766Z,43.50
2018-03-28T07:38:45.063Z,46.08
2018-03-28T07:41:11.305Z,53.70
2018-03-28T07:43:38.343Z,42.53
2018-03-28T07:46:04.640Z,46.28
2018-03-28T07:48:31.692Z,45.25
2018-03-28T07:50:58.007Z,42.22
2018-03-28T07:53:24.263Z,38.70
2018-03-28T07:55:50.529Z,37.83
2018-03-28T07:58:16.771Z,38.00
2018-03-28T08:00:43.035Z,43.05
2018-03-28T08:03:10.060Z,38.08
2018-03-28T08:05:36.343Z,44.47
2018-03-28T08:08:02.639Z,38.13
2018-03-28T08:10:29.732Z,43.58
2018-03-28T08:12:56.043Z,37.85
2018-03-28T08:15:22.329Z,37.70
2018-03-28T08:17:48.604Z,41.40
2018-03-28T08:20:14.843Z,41.67
2018-03-28T08:22:41.127Z,37.75
2018-03-28T08:25:07.380Z,41.05
2018-03-28T08:27:34.386Z,41.75
2018-03-28T08:30:00.639Z,33.55
2018-03-28T08:32:26.885Z,40.03
2018-03-28T08:34:53.887Z,41.35
2018-03-28T08:37:20.123Z,42.78
2018-03-28T08:39:46.403Z,35.58
2018-03-28T08:42:12.675Z,44.65
2018-03-28T08:44:38.956Z,38.20
2018-03-28T08:47:05.217Z,38.15
2018-03-28T08:49:31.480Z,43.10
2018-03-28T08:51:57.740Z,41.00
2018-03-28T08:54:24.751Z,40.72
2018-03-28T08:56:51.025Z,40.28
2018-03-28T08:59:18.018Z,40.05
2018-03-28T09:01:44.327Z,30.20
2018-03-28T09:04:10.622Z,37.20
2018-03-28T09:06:37.668Z,35.35
2018-03-28T09:09:04.867Z,31.12
2018-03-28T09:11:31.173Z,33.78
2018-03-28T09:13:58.203Z,30.85
2018-03-28T09:16:24.481Z,31.10
2018-03-28T09:18:50.752Z,30.60
2018-03-28T09:21:17.801Z,29.80
2018-03-28T09:23:44.809Z,31.48
2018-03-28T09:26:11.083Z,32.08
2018-03-28T09:28:38.105Z,36.25
2018-03-28T09:31:04.409Z,43.22
2018-03-28T09:33:30.660Z,36.63
2018-03-28T09:35:56.935Z,30.45
2018-03-28T09:38:23.211Z,37.40
2018-03-28T09:40:49.480Z,29.15
2018-03-28T09:43:16.496Z,34.53
2018-03-28T09:45:43.543Z,28.90
2018-03-28T09:48:09.880Z,27.08
2018-03-28T09:50:36.159Z,27.30
2018-03-28T09:53:02.444Z,30.70
2018-03-28T09:55:29.501Z,22.62
2018-03-28T09:57:57.491Z,25.88
2018-03-28T10:00:25.784Z,27.08
2018-03-28T10:02:58.204Z,33.70
2018-03-28T10:05:30.400Z,23.85
2018-03-28T10:07:56.692Z,27.87
2018-03-28T10:10:23.126Z,21.48
2018-03-28T10:12:49.416Z,28.92
2018-03-28T10:15:15.683Z,20.52
2018-03-28T10:17:41.972Z,28.25
2018-03-28T10:20:08.263Z,22.20
2018-03-28T10:22:35.280Z,26.20
2018-03-28T10:25:01.579Z,29.25
2018-03-28T10:27:27.837Z,22.48
2018-03-28T10:29:54.136Z,28.17
2018-03-28T10:32:20.423Z,19.62
2018-03-28T10:34:46.738Z,27.35
2018-03-28T10:37:13.072Z,20.10
2018-03-28T10:39:39.379Z,17.70
2018-03-28T10:42:05.652Z,16.37
2018-03-28T10:44:31.914Z,16.30
2018-03-28T10:46:58.175Z,21.98
2018-03-28T10:49:24.437Z,15.50
2018-03-28T10:51:51.471Z,18.30
2018-03-28T10:54:17.729Z,14.23
2018-03-28T10:56:44.763Z,18.10
2018-03-28T10:59:11.088Z,15.52
2018-03-28T11:01:37.391Z,13.13
2018-03-28T11:04:03.652Z,17.30
2018-03-28T11:06:29.924Z,12.68
2018-03-28T11:08:56.223Z,11.82
2018-03-28T11:11:22.472Z,11.77
2018-03-28T11:13:49.511Z,9.15
2018-03-28T11:16:15.770Z,11.25
2018-03-28T11:18:42.058Z,10.98
2018-03-28T11:21:08.356Z,14.13
2018-03-28T11:23:34.620Z,10.52
2018-03-28T11:26:01.632Z,12.55
2018-03-28T11:28:27.880Z,8.48
2018-03-28T11:30:54.171Z,8.65
2018-03-28T11:33:20.438Z,8.95
2018-03-28T11:35:46.724Z,6.32
2018-03-28T11:38:13.059Z,6.87
2018-03-28T11:40:39.358Z,6.62
2018-03-28T11:43:06.335Z,7.82
2018-03-28T11:45:32.595Z,11.25
2018-03-28T11:47:58.838Z,8.88
2018-03-28T11:50:25.100Z,8.60
2018-03-28T11:52:52.147Z,12.32
2018-03-28T11:55:18.368Z,13.00
2018-03-28T11:57:45.371Z,10.73
2018-03-28T12:00:11.635Z,7.68
2018-03-28T12:02:37.896Z,14.27
2018-03-28T12:05:04.150Z,11.10
2018-03-28T12:07:30.413Z,9.65
2018-03-28T12:09:56.648Z,13.25
2018-03-28T12:12:22.915Z,10.90
2018-03-28T12:14:49.152Z,11.12
2018-03-28T12:17:15.467Z,8.85
2018-03-28T12:19:41.761Z,10.55
2018-03-28T12:22:08.791Z,13.02
2018-03-28T12:24:35.067Z,14.43
2018-03-28T12:27:02.051Z,12.93
2018-03-28T12:29:28.323Z,10.57
2018-03-28T12:31:55.310Z,11.27
2018-03-28T12:34:21.573Z,13.48
2018-03-28T12:36:47.861Z,12.50
2018-03-28T12:39:14.099Z,10.32
2018-03-28T12:41:40.344Z,12.20
2018-03-28T12:44:06.615Z,9.70
2018-03-28T12:46:33.609Z,7.82
2018-03-28T12:48:59.864Z,15.77
2018-03-28T12:51:26.188Z,8.90
2018-03-28T12:53:52.443Z,14.52
2018-03-28T12:56:19.503Z,11.00
2018-03-28T12:58:46.495Z,14.35
2018-03-28T13:01:12.779Z,16.12
2018-03-28T13:03:39.100Z,9.98
2018-03-28T13:06:06.966Z,11.38
2018-03-28T13:08:33.228Z,11.23
2018-03-28T13:10:59.556Z,13.62
2018-03-28T13:13:25.823Z,18.83
2018-03-28T13:15:52.095Z,12.40
2018-03-28T13:18:18.420Z,16.27
2018-03-28T13:20:45.434Z,15.10
2018-03-28T13:23:11.723Z,13.02
2018-03-28T13:25:38.148Z,13.90
2018-03-28T13:28:04.470Z,16.80
2018-03-28T13:30:31.502Z,17.73
2018-03-28T13:32:57.770Z,21.02
2018-03-28T13:35:24.068Z,13.35
2018-03-28T13:37:51.114Z,18.00
2018-03-28T13:40:17.411Z,14.82
2018-03-28T13:42:43.757Z,12.73
2018-03-28T13:45:10.044Z,14.73
2018-03-28T13:47:36.298Z,15.90
2018-03-28T13:50:02.626Z,13.20
2018-03-28T13:52:28.892Z,14.52
2018-03-28T13:54:55.194Z,15.05
2018-03-28T13:57:21.470Z,13.35
2018-03-28T13:59:48.477Z,12.23
2018-03-28T14:02:14.762Z,15.50
2018-03-28T14:04:41.070Z,11.40
2018-03-28T14:07:08.127Z,15.55
2018-03-28T14:09:34.420Z,23.80
2018-03-28T14:12:00.675Z,17.80
2018-03-28T14:14:26.922Z,15.60
2018-03-28T14:16:53.200Z,20.45
2018-03-28T14:19:19.496Z,23.35
2018-03-28T14:21:45.843Z,12.77
2018-03-28T14:24:12.091Z,14.63
2018-03-28T14:26:38.363Z,21.50
2018-03-28T14:29:04.636Z,15.35
2018-03-28T14:31:30.949Z,18.40
2018-03-28T14:33:57.196Z,19.02
2018-03-28T14:36:23.484Z,26.48
2018-03-28T14:38:49.780Z,20.77
2018-03-28T14:41:16.055Z,16.35
2018-03-28T14:43:42.316Z,21.35
2018-03-28T14:46:08.596Z,18.55
2018-03-28T14:48:34.847Z,22.17
2018-03-28T14:51:01.138Z,26.05
2018-03-28T14:53:27.408Z,13.90
2018-03-28T14:55:54.420Z,15.13
2018-03-28T14:58:20.700Z,18.37
2018-03-28T15:00:46.996Z,15.23
2018-03-28T15:03:14.012Z,22.48
2018-03-28T15:05:40.281Z,17.85
2018-03-28T15:08:07.307Z,14.20
2018-03-28T15:10:33.579Z,18.67
2018-03-28T15:12:59.882Z,16.73
2018-03-28T15:15:26.896Z,17.25
2018-03-28T15:17:53.228Z,12.57
2018-03-28T15:20:19.882Z,13.77
2018-03-28T15:22:46.211Z,23.10
2018-03-28T15:25:12.540Z,16.17
2018-03-28T15:27:38.830Z,14.77
2018-03-28T15:30:05.096Z,14.57
2018-03-28T15:32:31.356Z,11.50
2018-03-28T15:34:57.603Z,18.95
2018-03-28T15:37:23.885Z,12.95
2018-03-28T15:39:50.143Z,11.07
2018-03-28T15:42:16.392Z,9.98
2018-03-28T15:44:42.660Z,13.73
2018-03-28T15:47:08.906Z,14.73
2018-03-28T15:49:35.282Z,18.83
2018-03-28T15:52:01.568Z,8.88
2018-03-28T15:54:27.839Z,11.18
2018-03-28T15:56:54.092Z,7.35
2018-03-28T15:59:20.358Z,9.52
2018-03-28T16:01:46.627Z,12.93
2018-03-28T16:04:12.895Z,16.95
2018-03-28T16:06:39.191Z,13.93
2018-03-28T16:09:05.558Z,9.88
2018-03-28T16:11:31.906Z,9.80
2018-03-28T16:13:58.168Z,11.43
2018-03-28T16:16:24.639Z,9.73
2018-03-28T16:18:51.071Z,14.70
2018-03-28T16:21:17.453Z,12.10
2018-03-28T16:23:44.816Z,13.95
2018-03-28T16:26:11.125Z,11.50
2018-03-28T16:28:37.399Z,10.90
2018-03-28T16:31:03.678Z,17.02
2018-03-28T16:33:29.935Z,16.23
2018-03-28T16:35:56.273Z,11.63
2018-03-28T16:38:22.928Z,16.55
2018-03-28T16:40:49.390Z,15.50
2018-03-28T16:43:15.835Z,13.50
2018-03-28T16:45:42.060Z,12.18
2018-03-28T16:48:08.397Z,13.15
2018-03-28T16:50:34.664Z,13.40
2018-03-28T16:53:01.643Z,11.90
2018-03-28T16:55:27.977Z,11.77
2018-03-28T16:57:54.218Z,13.80
2018-03-28T17:00:20.511Z,14.87
2018-03-28T17:02:46.833Z,12.13
2018-03-28T17:05:13.855Z,14.27
2018-03-28T17:07:40.193Z,12.68
2018-03-28T17:10:07.316Z,15.50
2018-03-28T17:12:33.631Z,11.05
2018-03-28T17:14:59.986Z,16.65
2018-03-28T17:17:26.292Z,12.95
2018-03-28T17:19:52.883Z,13.77
2018-03-28T17:22:19.908Z,19.73
2018-03-28T17:24:46.225Z,12.20
2018-03-28T17:27:12.755Z,16.98
2018-03-28T17:29:39.342Z,13.70
2018-03-28T17:32:06.025Z,12.85
2018-03-28T17:34:32.295Z,13.73
2018-03-28T17:36:58.562Z,12.55
2018-03-28T17:39:24.856Z,11.30
2018-03-28T17:41:51.883Z,14.15
2018-03-28T17:44:18.136Z,10.02
2018-03-28T17:46:45.475Z,10.82
2018-03-28T17:49:11.744Z,8.20
2018-03-28T17:51:38.005Z,6.90
2018-03-28T17:54:04.299Z,8.35
2018-03-28T17:56:31.296Z,5.82
2018-03-28T17:58:57.596Z,4.70
2018-03-28T18:01:23.865Z,5.45
2018-03-28T18:03:50.144Z,4.05
2018-03-28T18:06:16.406Z,3.95
2018-03-28T18:08:42.684Z,2.10
2018-03-28T18:11:09.697Z,2.50
2018-03-28T18:13:35.971Z,3.67
2018-03-28T18:16:02.241Z,3.65
2018-03-28T18:18:28.519Z,4.80
2018-03-28T18:20:55.535Z,4.32
2018-03-28T18:23:21.780Z,4.12
2018-03-28T18:25:48.792Z,5.22
2018-03-28T18:28:15.064Z,5.20
2018-03-28T18:30:41.331Z,5.03
2018-03-28T18:33:07.616Z,4.90
2018-03-28T18:35:34.663Z,4.62
2018-03-28T18:38:00.920Z,4.78
2018-03-28T18:40:27.911Z,4.95
2018-03-28T18:42:54.963Z,5.97
2018-03-28T18:45:21.228Z,7.00
2018-03-28T18:47:48.252Z,10.48
2018-03-28T18:50:14.550Z,7.28
2018-03-28T18:52:40.803Z,7.20
2018-03-28T18:55:07.075Z,7.03
2018-03-28T18:57:34.059Z,6.60
2018-03-28T19:00:00.365Z,8.27
2018-03-28T19:02:26.672Z,7.47
2018-03-28T19:04:53.668Z,6.12
2018-03-28T19:07:19.932Z,4.20
2018-03-28T19:09:46.232Z,4.87
2018-03-28T19:12:12.495Z,6.82
2018-03-28T19:14:38.796Z,6.72
2018-03-28T19:17:05.096Z,5.87
2018-03-28T19:19:31.407Z,7.20
2018-03-28T19:21:58.400Z,7.07
2018-03-28T19:24:24.703Z,8.35
2018-03-28T19:26:50.935Z,8.10
2018-03-28T19:29:17.260Z,7.43
2018-03-28T19:31:43.512Z,6.65
2018-03-28T19:34:09.781Z,8.05
2018-03-28T19:36:36.013Z,7.90
2018-03-28T19:39:03.063Z,7.62
2018-03-28T19:41:29.323Z,11.15
2018-03-28T19:43:55.635Z,11.55
2018-03-28T19:46:21.892Z,10.88
2018-03-28T19:48:48.155Z,10.43
2018-03-28T19:51:14.433Z,10.88
2018-03-28T19:53:41.419Z,10.45
2018-03-28T19:56:07.704Z,11.93
2018-03-28T19:58:34.695Z,13.20
2018-03-28T20:01:00.984Z,14.00
2018-03-28T20:03:27.963Z,11.00
2018-03-28T20:05:54.258Z,10.73
2018-03-28T20:08:21.580Z,11.00
2018-03-28T20:10:47.884Z,13.73
2018-03-28T20:13:14.190Z,10.98
2018-03-28T20:15:40.471Z,8.32
2018-03-28T20:18:06.773Z,10.00
2018-03-28T20:20:33.015Z,13.68
2018-03-28T20:22:59.309Z,14.93
2018-03-28T20:25:25.575Z,12.40
2018-03-28T20:27:51.997Z,13.43
2018-03-28T20:30:18.260Z,12.45
2018-03-28T20:32:44.577Z,13.13
2018-03-28T20:35:10.864Z,9.68
2018-03-28T20:37:37.163Z,10.80
2018-03-28T20:40:03.459Z,11.35
2018-03-28T20:42:29.764Z,12.70
2018-03-28T20:44:56.064Z,10.75
2018-03-28T20:47:22.354Z,9.77
2018-03-28T20:49:48.644Z,11.88
2018-03-28T20:52:14.884Z,10.13
2018-03-28T20:54:41.167Z,10.07
2018-03-28T20:57:07.419Z,11.07
2018-03-28T20:59:33.696Z,12.57
2018-03-28T21:01:59.984Z,12.05
2018-03-28T21:04:26.240Z,12.13
2018-03-28T21:06:52.511Z,11.45
2018-03-28T21:09:18.777Z,11.07
2018-03-28T21:11:45.036Z,11.50
2018-03-28T21:14:11.403Z,13.77
2018-03-28T21:16:38.463Z,10.85
2018-03-28T21:19:05.471Z,11.27
2018-03-28T21:21:31.827Z,12.00
2018-03-28T21:23:58.104Z,12.68
2018-03-28T21:26:24.383Z,12.45
2018-03-28T21:28:50.806Z,13.52
2018-03-28T21:31:17.083Z,13.73
2018-03-28T21:33:43.342Z,13.55
2018-03-28T21:36:10.389Z,14.35
2018-03-28T21:38:36.651Z,14.15
2018-03-28T21:41:02.907Z,15.43
2018-03-28T21:43:29.911Z,14.45
2018-03-28T21:45:56.919Z,17.00
2018-03-28T21:48:23.216Z,15.85
2018-03-28T21:50:50.210Z,16.12
2018-03-28T21:53:16.467Z,18.42
2018-03-28T21:55:42.731Z,16.05
2018-03-28T21:58:09.732Z,18.20
2018-03-28T22:00:36.004Z,13.75
2018-03-28T22:03:03.010Z,15.00
2018-03-28T22:05:29.265Z,14.48
2018-03-28T22:07:55.531Z,18.17
2018-03-28T22:10:21.796Z,15.40
2018-03-28T22:12:48.043Z,15.10
2018-03-28T22:15:14.312Z,17.70
2018-03-28T22:17:41.300Z,16.35
2018-03-28T22:20:07.611Z,14.80
2018-03-28T22:22:33.868Z,17.55
2018-03-28T22:25:00.128Z,15.18
2018-03-28T22:27:27.172Z,14.73
2018-03-28T22:29:54.183Z,14.32
2018-03-28T22:32:20.448Z,15.00
2018-03-28T22:34:46.719Z,11.98
2018-03-28T22:37:13.000Z,14.95
2018-03-28T22:39:39.236Z,11.95
2018-03-28T22:42:06.239Z,11.40
2018-03-28T22:44:32.475Z,10.75
2018-03-28T22:46:58.744Z,11.52
2018-03-28T22:49:24.972Z,11.15
2018-03-28T22:51:51.975Z,10.68
2018-03-28T22:54:18.992Z,9.68
2018-03-28T22:56:45.319Z,10.30
2018-03-28T22:59:12.310Z,9.05
2018-03-28T23:01:38.555Z,9.88
2018-03-28T23:04:04.852Z,9.70
2018-03-28T23:06:31.132Z,8.50
2018-03-28T23:08:57.379Z,8.85
2018-03-28T23:11:24.376Z,8.15
2018-03-28T23:13:50.635Z,10.32
2018-03-28T23:16:16.897Z,9.65
2018-03-28T23:18:43.150Z,9.70
2018-03-28T23:21:09.418Z,10.30
2018-03-28T23:23:35.659Z,8.07
2018-03-28T23:26:01.926Z,8.95
2018-03-28T23:28:28.167Z,9.10
2018-03-28T23:30:54.424Z,9.75
2018-03-28T23:33:20.682Z,11.73
2018-03-28T23:35:47.704Z,8.65
2018-03-28T23:38:13.976Z,11.23
2018-03-28T23:40:40.270Z,13.70
2018-03-28T23:43:06.521Z,10.88
2018-03-28T23:45:33.511Z,10.40
2018-03-28T23:47:59.766Z,12.02
2018-03-28T23:50:25.999Z,11.15
2018-03-28T23:52:52.273Z,11.38
2018-03-28T23:55:18.547Z,11.77
2018-03-28T23:57:44.807Z,11.60
